sensor_id;sensor_type;location;lat;lon;timestamp;pressure;altitude;pressure_sealevel;temperature;humidity
80242;BME280;69556;45.004;7.532;2023-11-21T00:00:04;97942.13;;;9.53;83.29
80242;BME280;69556;45.004;7.532;2023-11-21T00:02:35;97939.38;;;9.56;83.13
80242;BME280;69556;45.004;7.532;2023-11-21T00:05:01;97933.53;;;9.48;83.17
80242;BME280;69556;45.004;7.532;2023-11-21T00:07:28;97936.06;;;9.51;83.35
80242;BME280;69556;45.004;7.532;2023-11-21T00:09:53;97924.53;;;9.53;83.18
80242;BME280;69556;45.004;7.532;2023-11-21T00:12:20;97926.44;;;9.50;83.03
80242;BME280;69556;45.004;7.532;2023-11-21T00:14:46;97932.50;;;9.52;83.38
80242;BME280;69556;45.004;7.532;2023-11-21T00:17:11;97923.63;;;9.54;83.38
80242;BME280;69556;45.004;7.532;2023-11-21T00:19:37;97928.09;;;9.52;83.27
80242;BME280;69556;45.004;7.532;2023-11-21T00:22:02;97927.13;;;9.55;83.00
80242;BME280;69556;45.004;7.532;2023-11-21T00:24:27;97915.78;;;9.53;83.35
80242;BME280;69556;45.004;7.532;2023-11-21T00:26:53;97919.28;;;9.53;83.52
80242;BME280;69556;45.004;7.532;2023-11-21T00:29:18;97912.28;;;9.52;83.17
80242;BME280;69556;45.004;7.532;2023-11-21T00:31:44;97907.81;;;9.54;83.25
80242;BME280;69556;45.004;7.532;2023-11-21T00:34:11;97907.69;;;9.57;83.26
80242;BME280;69556;45.004;7.532;2023-11-21T00:36:37;97906.78;;;9.58;82.98
80242;BME280;69556;45.004;7.532;2023-11-21T00:39:02;97912.97;;;9.57;83.25
80242;BME280;69556;45.004;7.532;2023-11-21T00:41:29;97913.94;;;9.55;83.42
80242;BME280;69556;45.004;7.532;2023-11-21T00:43:54;97909.59;;;9.54;83.53
80242;BME280;69556;45.004;7.532;2023-11-21T00:46:20;97909.59;;;9.54;83.51
80242;BME280;69556;45.004;7.532;2023-11-21T00:48:46;97899.00;;;9.55;83.39
80242;BME280;69556;45.004;7.532;2023-11-21T00:51:11;97907.16;;;9.49;83.95
80242;BME280;69556;45.004;7.532;2023-11-21T00:53:36;97906.22;;;9.50;83.52
80242;BME280;69556;45.004;7.532;2023-11-21T00:56:02;97896.66;;;9.48;84.34
80242;BME280;69556;45.004;7.532;2023-11-21T00:58:27;97896.56;;;9.51;84.21
80242;BME280;69556;45.004;7.532;2023-11-21T01:00:53;97897.41;;;9.51;83.80
80242;BME280;69556;45.004;7.532;2023-11-21T01:03:18;97895.69;;;9.50;84.42
80242;BME280;69556;45.004;7.532;2023-11-21T01:05:44;97899.19;;;9.51;84.31
80242;BME280;69556;45.004;7.532;2023-11-21T01:08:11;97893.97;;;9.49;83.95
80242;BME280;69556;45.004;7.532;2023-11-21T01:10:36;97905.06;;;9.57;84.34
80242;BME280;69556;45.004;7.532;2023-11-21T01:13:02;97911.31;;;9.55;84.33
80242;BME280;69556;45.004;7.532;2023-11-21T01:15:30;97912.19;;;9.55;84.42
80242;BME280;69556;45.004;7.532;2023-11-21T01:17:56;97913.94;;;9.55;84.71
80242;BME280;69556;45.004;7.532;2023-11-21T01:20:21;97917.31;;;9.58;84.15
80242;BME280;69556;45.004;7.532;2023-11-21T01:22:46;97906.09;;;9.53;84.59
80242;BME280;69556;45.004;7.532;2023-11-21T01:25:14;97920.84;;;9.57;84.64
80242;BME280;69556;45.004;7.532;2023-11-21T01:27:41;97916.53;;;9.56;84.33
80242;BME280;69556;45.004;7.532;2023-11-21T01:30:07;97910.50;;;9.53;84.55
80242;BME280;69556;45.004;7.532;2023-11-21T01:32:34;97917.44;;;9.55;84.55
80242;BME280;69556;45.004;7.532;2023-11-21T01:35:00;97905.06;;;9.57;84.43
80242;BME280;69556;45.004;7.532;2023-11-21T01:37:25;97904.13;;;9.58;84.59
80242;BME280;69556;45.004;7.532;2023-11-21T01:39:55;97905.91;;;9.58;84.80
80242;BME280;69556;45.004;7.532;2023-11-21T01:42:21;97918.22;;;9.57;84.87
80242;BME280;69556;45.004;7.532;2023-11-21T01:44:47;97910.47;;;9.54;84.65
80242;BME280;69556;45.004;7.532;2023-11-21T01:47:13;97909.59;;;9.54;85.12
80242;BME280;69556;45.004;7.532;2023-11-21T01:49:39;97914.91;;;9.52;85.28
80242;BME280;69556;45.004;7.532;2023-11-21T01:52:05;97917.69;;;9.49;85.11
80242;BME280;69556;45.004;7.532;2023-11-21T01:54:31;97919.28;;;9.53;85.30
80242;BME280;69556;45.004;7.532;2023-11-21T01:57:00;97912.56;;;9.46;85.40
80242;BME280;69556;45.004;7.532;2023-11-21T01:59:35;97903.59;;;9.50;85.61
80242;BME280;69556;45.004;7.532;2023-11-21T02:02:03;97901.03;;;9.49;85.84
80242;BME280;69556;45.004;7.532;2023-11-21T02:04:30;97900.88;;;9.52;85.40
80242;BME280;69556;45.004;7.532;2023-11-21T02:06:57;97895.63;;;9.52;84.96
80242;BME280;69556;45.004;7.532;2023-11-21T02:09:26;97906.91;;;9.55;84.97
80242;BME280;69556;45.004;7.532;2023-11-21T02:11:52;97898.91;;;9.57;84.39
80242;BME280;69556;45.004;7.532;2023-11-21T02:14:19;97899.00;;;9.55;84.61
80242;BME280;69556;45.004;7.532;2023-11-21T02:16:46;97899.78;;;9.57;84.75
80242;BME280;69556;45.004;7.532;2023-11-21T02:19:17;97891.97;;;9.56;84.73
80242;BME280;69556;45.004;7.532;2023-11-21T02:21:45;97896.38;;;9.55;84.99
80242;BME280;69556;45.004;7.532;2023-11-21T02:24:11;97897.22;;;9.56;84.76
80242;BME280;69556;45.004;7.532;2023-11-21T02:26:36;97896.25;;;9.58;84.86
80242;BME280;69556;45.004;7.532;2023-11-21T02:29:01;97890.09;;;9.58;84.97
80242;BME280;69556;45.004;7.532;2023-11-21T02:31:29;97888.13;;;9.63;84.88
80242;BME280;69556;45.004;7.532;2023-11-21T02:33:55;97893.34;;;9.64;84.44
80242;BME280;69556;45.004;7.532;2023-11-21T02:36:20;97893.47;;;9.61;84.74
80242;BME280;69556;45.004;7.532;2023-11-21T02:38:47;97890.81;;;9.61;84.41
80242;BME280;69556;45.004;7.532;2023-11-21T02:41:12;97890.06;;;9.59;84.48
80242;BME280;69556;45.004;7.532;2023-11-21T02:43:38;97882.09;;;9.61;84.86
80242;BME280;69556;45.004;7.532;2023-11-21T02:46:04;97879.47;;;9.61;85.20
80242;BME280;69556;45.004;7.532;2023-11-21T02:48:29;97886.38;;;9.63;84.66
80242;BME280;69556;45.004;7.532;2023-11-21T02:50:55;97885.50;;;9.63;84.46
80242;BME280;69556;45.004;7.532;2023-11-21T02:53:21;97873.34;;;9.60;85.05
80242;BME280;69556;45.004;7.532;2023-11-21T02:55:46;97879.47;;;9.61;84.87
80242;BME280;69556;45.004;7.532;2023-11-21T02:58:12;97878.59;;;9.60;85.29
80242;BME280;69556;45.004;7.532;2023-11-21T03:00:37;97885.69;;;9.58;85.42
80242;BME280;69556;45.004;7.532;2023-11-21T03:03:02;97888.53;;;9.54;85.92
80242;BME280;69556;45.004;7.532;2023-11-21T03:05:29;97885.03;;;9.53;86.49
80242;BME280;69556;45.004;7.532;2023-11-21T03:07:54;97892.19;;;9.50;85.98
80242;BME280;69556;45.004;7.532;2023-11-21T03:10:20;97883.50;;;9.48;86.13
80242;BME280;69556;45.004;7.532;2023-11-21T03:12:45;97884.34;;;9.48;85.58
80242;BME280;69556;45.004;7.532;2023-11-21T03:15:11;97877.44;;;9.46;85.45
80242;BME280;69556;45.004;7.532;2023-11-21T03:17:36;97883.44;;;9.49;85.38
80242;BME280;69556;45.004;7.532;2023-11-21T03:20:02;97876.44;;;9.48;85.65
80242;BME280;69556;45.004;7.532;2023-11-21T03:22:29;97867.78;;;9.46;85.82
80242;BME280;69556;45.004;7.532;2023-11-21T03:24:54;97864.31;;;9.44;86.55
80242;BME280;69556;45.004;7.532;2023-11-21T03:27:19;97861.94;;;9.38;86.35
80242;BME280;69556;45.004;7.532;2023-11-21T03:29:45;97868.25;;;9.34;86.12
80242;BME280;69556;45.004;7.532;2023-11-21T03:32:12;97871.97;;;9.28;86.87
80242;BME280;69556;45.004;7.532;2023-11-21T03:34:53;97866.00;;;9.25;87.08
80242;BME280;69556;45.004;7.532;2023-11-21T03:37:19;97870.56;;;9.20;87.07
80242;BME280;69556;45.004;7.532;2023-11-21T03:39:45;97873.28;;;9.18;86.94
80242;BME280;69556;45.004;7.532;2023-11-21T03:42:11;97871.69;;;9.14;87.29
80242;BME280;69556;45.004;7.532;2023-11-21T03:44:36;97879.66;;;9.13;87.20
80242;BME280;69556;45.004;7.532;2023-11-21T03:47:01;97879.16;;;9.03;88.21
80242;BME280;69556;45.004;7.532;2023-11-21T03:49:27;97863.41;;;9.02;88.38
80242;BME280;69556;45.004;7.532;2023-11-21T03:51:54;97866.31;;;8.96;88.38
80242;BME280;69556;45.004;7.532;2023-11-21T03:54:20;97863.41;;;9.02;87.94
80242;BME280;69556;45.004;7.532;2023-11-21T03:56:45;97861.94;;;8.95;88.58
80242;BME280;69556;45.004;7.532;2023-11-21T03:59:10;97859.69;;;8.86;88.41
80242;BME280;69556;45.004;7.532;2023-11-21T04:01:36;97859.84;;;8.81;89.00
80242;BME280;69556;45.004;7.532;2023-11-21T04:04:02;97858.34;;;8.74;89.33
80242;BME280;69556;45.004;7.532;2023-11-21T04:06:27;97864.81;;;8.65;89.84
80242;BME280;69556;45.004;7.532;2023-11-21T04:08:53;97873.56;;;8.66;90.03
80242;BME280;69556;45.004;7.532;2023-11-21T04:11:18;97869.19;;;8.66;89.66
80242;BME280;69556;45.004;7.532;2023-11-21T04:13:43;97866.59;;;8.65;90.22
80242;BME280;69556;45.004;7.532;2023-11-21T04:16:09;97878.88;;;8.64;90.16
80242;BME280;69556;45.004;7.532;2023-11-21T04:18:37;97883.25;;;8.65;90.18
80242;BME280;69556;45.004;7.532;2023-11-21T04:21:04;97887.59;;;8.66;90.12
80242;BME280;69556;45.004;7.532;2023-11-21T04:23:30;97882.13;;;8.72;89.94
80242;BME280;69556;45.004;7.532;2023-11-21T04:25:57;97882.91;;;8.74;89.88
80242;BME280;69556;45.004;7.532;2023-11-21T04:28:25;97878.53;;;8.73;89.96
80242;BME280;69556;45.004;7.532;2023-11-21T04:30:51;97876.69;;;8.77;89.49
80242;BME280;69556;45.004;7.532;2023-11-21T04:33:17;97878.66;;;8.70;89.71
80242;BME280;69556;45.004;7.532;2023-11-21T04:35:42;97876.94;;;8.69;90.01
80242;BME280;69556;45.004;7.532;2023-11-21T04:38:08;97877.94;;;8.67;89.97
80242;BME280;69556;45.004;7.532;2023-11-21T04:40:33;97879.13;;;8.58;90.40
80242;BME280;69556;45.004;7.532;2023-11-21T04:42:58;97875.81;;;8.53;90.47
80242;BME280;69556;45.004;7.532;2023-11-21T04:45:24;97878.53;;;8.50;90.99
80242;BME280;69556;45.004;7.532;2023-11-21T04:47:49;97876.19;;;8.43;91.22
80242;BME280;69556;45.004;7.532;2023-11-21T04:50:14;97877.97;;;8.42;91.40
80242;BME280;69556;45.004;7.532;2023-11-21T04:52:39;97870.13;;;8.40;91.23
80242;BME280;69556;45.004;7.532;2023-11-21T04:55:05;97876.50;;;8.35;91.48
80242;BME280;69556;45.004;7.532;2023-11-21T04:57:35;97868.09;;;8.24;91.67
80242;BME280;69556;45.004;7.532;2023-11-21T05:00:00;97876.94;;;8.21;92.36
80242;BME280;69556;45.004;7.532;2023-11-21T05:02:25;97883.13;;;8.20;92.16
80242;BME280;69556;45.004;7.532;2023-11-21T05:04:50;97883.16;;;8.19;92.36
80242;BME280;69556;45.004;7.532;2023-11-21T05:07:16;97894.81;;;8.12;92.77
80242;BME280;69556;45.004;7.532;2023-11-21T05:09:42;97899.78;;;7.94;92.37
80242;BME280;69556;45.004;7.532;2023-11-21T05:12:09;97912.53;;;7.80;92.93
80242;BME280;69556;45.004;7.532;2023-11-21T05:14:35;97915.59;;;7.68;93.60
80242;BME280;69556;45.004;7.532;2023-11-21T05:17:00;97913.03;;;7.65;94.65
80242;BME280;69556;45.004;7.532;2023-11-21T05:19:26;97920.91;;;7.65;94.66
80242;BME280;69556;45.004;7.532;2023-11-21T05:21:52;97917.34;;;7.68;94.71
80242;BME280;69556;45.004;7.532;2023-11-21T05:24:17;97918.28;;;7.65;94.46
80242;BME280;69556;45.004;7.532;2023-11-21T05:26:42;97902.66;;;7.62;95.00
80242;BME280;69556;45.004;7.532;2023-11-21T05:29:08;97894.06;;;7.57;95.19
80242;BME280;69556;45.004;7.532;2023-11-21T05:31:36;97892.56;;;7.50;95.50
80242;BME280;69556;45.004;7.532;2023-11-21T05:34:01;97897.59;;;7.56;95.66
80242;BME280;69556;45.004;7.532;2023-11-21T05:36:26;97897.44;;;7.61;95.20
80242;BME280;69556;45.004;7.532;2023-11-21T05:38:52;97904.53;;;7.59;95.42
80242;BME280;69556;45.004;7.532;2023-11-21T05:41:17;97910.69;;;7.58;95.46
80242;BME280;69556;45.004;7.532;2023-11-21T05:43:43;97905.69;;;7.50;95.34
80242;BME280;69556;45.004;7.532;2023-11-21T05:46:09;97902.22;;;7.48;95.31
80242;BME280;69556;45.004;7.532;2023-11-21T05:48:34;97900.81;;;7.38;95.66
80242;BME280;69556;45.004;7.532;2023-11-21T05:51:02;97890.31;;;7.38;96.00
80242;BME280;69556;45.004;7.532;2023-11-21T05:53:27;97894.06;;;7.31;96.57
80242;BME280;69556;45.004;7.532;2023-11-21T05:55:53;97895.81;;;7.30;96.24
80242;BME280;69556;45.004;7.532;2023-11-21T05:58:18;97894.91;;;7.31;96.31
80242;BME280;69556;45.004;7.532;2023-11-21T06:00:43;97890.75;;;7.24;96.26
80242;BME280;69556;45.004;7.532;2023-11-21T06:03:09;97883.75;;;7.25;96.53
80242;BME280;69556;45.004;7.532;2023-11-21T06:05:34;97896.72;;;7.29;96.70
80242;BME280;69556;45.004;7.532;2023-11-21T06:08:00;97892.19;;;7.34;96.43
80242;BME280;69556;45.004;7.532;2023-11-21T06:10:26;97889.59;;;7.33;96.08
80242;BME280;69556;45.004;7.532;2023-11-21T06:12:53;97877.56;;;7.27;96.01
80242;BME280;69556;45.004;7.532;2023-11-21T06:15:18;97874.06;;;7.27;96.48
80242;BME280;69556;45.004;7.532;2023-11-21T06:17:46;97880.22;;;7.26;96.49
80242;BME280;69556;45.004;7.532;2023-11-21T06:20:17;97875.06;;;7.23;96.62
80242;BME280;69556;45.004;7.532;2023-11-21T06:22:44;97874.28;;;7.19;97.00
80242;BME280;69556;45.004;7.532;2023-11-21T06:25:11;97862.03;;;7.20;97.00
80242;BME280;69556;45.004;7.532;2023-11-21T06:27:39;97855.16;;;7.16;96.85
80242;BME280;69556;45.004;7.532;2023-11-21T06:30:06;97863.19;;;7.11;96.43
80242;BME280;69556;45.004;7.532;2023-11-21T06:32:32;97862.53;;;7.04;96.80
80242;BME280;69556;45.004;7.532;2023-11-21T06:34:57;97859.28;;;6.96;97.05
80242;BME280;69556;45.004;7.532;2023-11-21T06:37:26;97860.38;;;6.89;97.16
80242;BME280;69556;45.004;7.532;2023-11-21T06:39:52;97865.69;;;6.86;97.56
80242;BME280;69556;45.004;7.532;2023-11-21T06:42:18;97878.88;;;6.85;98.08
80242;BME280;69556;45.004;7.532;2023-11-21T06:44:47;97881.16;;;6.95;97.83
80242;BME280;69556;45.004;7.532;2023-11-21T06:47:13;97890.69;;;6.99;97.74
80242;BME280;69556;45.004;7.532;2023-11-21T06:49:38;97889.66;;;7.03;97.65
80242;BME280;69556;45.004;7.532;2023-11-21T06:52:04;97897.47;;;7.05;97.72
80242;BME280;69556;45.004;7.532;2023-11-21T06:54:33;97900.25;;;7.00;97.64
80242;BME280;69556;45.004;7.532;2023-11-21T06:56:58;97909.69;;;7.06;97.30
80242;BME280;69556;45.004;7.532;2023-11-21T06:59:23;97911.31;;;7.10;97.43
80242;BME280;69556;45.004;7.532;2023-11-21T07:01:49;97912.78;;;7.19;97.42
80242;BME280;69556;45.004;7.532;2023-11-21T07:04:15;97919.69;;;7.23;97.07
80242;BME280;69556;45.004;7.532;2023-11-21T07:06:40;97911.69;;;7.27;96.94
80242;BME280;69556;45.004;7.532;2023-11-21T07:09:07;97911.56;;;7.30;97.29
80242;BME280;69556;45.004;7.532;2023-11-21T07:11:34;97901.81;;;7.34;96.92
80242;BME280;69556;45.004;7.532;2023-11-21T07:14:00;97902.94;;;7.27;96.85
80242;BME280;69556;45.004;7.532;2023-11-21T07:16:33;97904.56;;;7.31;96.67
80242;BME280;69556;45.004;7.532;2023-11-21T07:19:00;97899.78;;;7.42;96.78
80242;BME280;69556;45.004;7.532;2023-11-21T07:21:25;97898.72;;;7.49;96.59
80242;BME280;69556;45.004;7.532;2023-11-21T07:23:50;97895.97;;;7.52;96.25
80242;BME280;69556;45.004;7.532;2023-11-21T07:26:16;97900.88;;;7.63;95.49
80242;BME280;69556;45.004;7.532;2023-11-21T07:28:41;97900.75;;;7.66;95.08
80242;BME280;69556;45.004;7.532;2023-11-21T07:31:06;97885.00;;;7.66;94.81
80242;BME280;69556;45.004;7.532;2023-11-21T07:33:32;97892.53;;;7.76;94.22
80242;BME280;69556;45.004;7.532;2023-11-21T07:35:57;97896.72;;;7.82;93.86
80242;BME280;69556;45.004;7.532;2023-11-21T07:38:22;97901.88;;;7.85;93.51
80242;BME280;69556;45.004;7.532;2023-11-21T07:40:48;97885.88;;;7.92;93.43
80242;BME280;69556;45.004;7.532;2023-11-21T07:43:13;97890.84;;;8.00;92.92
80242;BME280;69556;45.004;7.532;2023-11-21T07:45:39;97893.44;;;8.02;92.63
80242;BME280;69556;45.004;7.532;2023-11-21T07:48:04;97886.28;;;8.05;92.59
80242;BME280;69556;45.004;7.532;2023-11-21T07:50:30;97885.38;;;8.06;92.40
80242;BME280;69556;45.004;7.532;2023-11-21T07:52:56;97880.13;;;8.06;92.38
80242;BME280;69556;45.004;7.532;2023-11-21T07:55:22;97863.50;;;8.06;92.04
80242;BME280;69556;45.004;7.532;2023-11-21T07:57:48;97853.88;;;8.05;92.00
80242;BME280;69556;45.004;7.532;2023-11-21T08:00:13;97858.31;;;8.03;92.15
80242;BME280;69556;45.004;7.532;2023-11-21T08:02:40;97850.53;;;8.01;92.12
80242;BME280;69556;45.004;7.532;2023-11-21T08:05:11;97861.97;;;7.98;91.97
80242;BME280;69556;45.004;7.532;2023-11-21T08:07:37;97856.97;;;7.92;92.46
80242;BME280;69556;45.004;7.532;2023-11-21T08:10:03;97858.97;;;7.84;92.49
80242;BME280;69556;45.004;7.532;2023-11-21T08:12:30;97856.78;;;7.72;92.73
80242;BME280;69556;45.004;7.532;2023-11-21T08:14:55;97851.38;;;7.77;93.49
80242;BME280;69556;45.004;7.532;2023-11-21T08:17:21;97857.28;;;7.83;93.21
80242;BME280;69556;45.004;7.532;2023-11-21T08:19:46;97848.63;;;7.80;93.17
80242;BME280;69556;45.004;7.532;2023-11-21T08:22:15;97858.22;;;7.81;93.58
80242;BME280;69556;45.004;7.532;2023-11-21T08:24:41;97861.69;;;7.83;93.75
80242;BME280;69556;45.004;7.532;2023-11-21T08:27:06;97862.56;;;7.82;93.83
80242;BME280;69556;45.004;7.532;2023-11-21T08:29:32;97873.66;;;7.90;93.83
80242;BME280;69556;45.004;7.532;2023-11-21T08:31:58;97861.97;;;7.98;93.74
80242;BME280;69556;45.004;7.532;2023-11-21T08:34:25;97863.28;;;8.12;93.35
80242;BME280;69556;45.004;7.532;2023-11-21T08:36:50;97842.19;;;8.13;92.51
80242;BME280;69556;45.004;7.532;2023-11-21T08:39:16;97849.84;;;8.19;92.90
80242;BME280;69556;45.004;7.532;2023-11-21T08:41:44;97849.84;;;8.19;93.72
80242;BME280;69556;45.004;7.532;2023-11-21T08:44:09;97847.97;;;8.23;93.08
80242;BME280;69556;45.004;7.532;2023-11-21T08:46:34;97840.81;;;8.26;93.20
80242;BME280;69556;45.004;7.532;2023-11-21T08:49:02;97845.56;;;8.42;93.36
80242;BME280;69556;45.004;7.532;2023-11-21T08:51:27;97825.16;;;8.48;92.75
80242;BME280;69556;45.004;7.532;2023-11-21T08:53:52;97826.56;;;8.57;92.66
80242;BME280;69556;45.004;7.532;2023-11-21T08:56:18;97826.41;;;8.61;92.16
80242;BME280;69556;45.004;7.532;2023-11-21T08:58:45;97816.75;;;8.62;92.36
80242;BME280;69556;45.004;7.532;2023-11-21T09:01:12;97818.34;;;8.66;91.84
80242;BME280;69556;45.004;7.532;2023-11-21T09:03:37;97817.34;;;8.68;91.77
80242;BME280;69556;45.004;7.532;2023-11-21T09:06:03;97826.78;;;8.74;92.35
80242;BME280;69556;45.004;7.532;2023-11-21T09:08:29;97806.38;;;8.80;92.05
80242;BME280;69556;45.004;7.532;2023-11-21T09:10:54;97824.38;;;8.91;91.61
80242;BME280;69556;45.004;7.532;2023-11-21T09:13:20;97826.91;;;8.93;91.00
80242;BME280;69556;45.004;7.532;2023-11-21T09:15:45;97831.78;;;9.03;91.39
80242;BME280;69556;45.004;7.532;2023-11-21T09:18:14;97827.78;;;9.15;91.04
80242;BME280;69556;45.004;7.532;2023-11-21T09:20:40;97820.69;;;9.17;90.29
80242;BME280;69556;45.004;7.532;2023-11-21T09:23:05;97815.38;;;9.18;90.62
80242;BME280;69556;45.004;7.532;2023-11-21T09:25:32;97822.03;;;9.27;90.69
80242;BME280;69556;45.004;7.532;2023-11-21T09:27:58;97817.44;;;9.32;90.13
80242;BME280;69556;45.004;7.532;2023-11-21T09:30:23;97813.75;;;9.36;89.98
80242;BME280;69556;45.004;7.532;2023-11-21T09:32:50;97809.25;;;9.38;90.12
80242;BME280;69556;45.004;7.532;2023-11-21T09:35:15;97809.00;;;9.44;89.62
80242;BME280;69556;45.004;7.532;2023-11-21T09:37:43;97806.38;;;9.44;89.54
80242;BME280;69556;45.004;7.532;2023-11-21T09:40:10;97806.25;;;9.47;89.60
80242;BME280;69556;45.004;7.532;2023-11-21T09:42:40;97812.69;;;9.40;88.67
80242;BME280;69556;45.004;7.532;2023-11-21T09:45:32;97821.84;;;9.52;88.58
80242;BME280;69556;45.004;7.532;2023-11-21T09:48:00;97813.13;;;9.51;87.79
80242;BME280;69556;45.004;7.532;2023-11-21T09:50:26;97806.66;;;9.58;87.36
80242;BME280;69556;45.004;7.532;2023-11-21T09:55:42;97808.97;;;9.66;87.18
80242;BME280;69556;45.004;7.532;2023-11-21T09:58:09;97796.53;;;9.69;87.22
80242;BME280;69556;45.004;7.532;2023-11-21T10:00:42;97804.44;;;9.69;87.41
80242;BME280;69556;45.004;7.532;2023-11-21T10:03:08;97812.72;;;9.81;87.77
80242;BME280;69556;45.004;7.532;2023-11-21T10:05:34;97800.19;;;9.86;87.20
80242;BME280;69556;45.004;7.532;2023-11-21T10:08:00;97787.03;;;9.86;87.04
80242;BME280;69556;45.004;7.532;2023-11-21T10:10:27;97777.53;;;12.97;92.76
80242;BME280;69556;45.004;7.532;2023-11-21T10:12:55;97776.28;;;15.61;76.42
80242;BME280;69556;45.004;7.532;2023-11-21T10:15:24;97774.47;;;15.61;69.94
80242;BME280;69556;45.004;7.532;2023-11-21T10:17:54;97756.88;;;17.45;62.09
80242;BME280;69556;45.004;7.532;2023-11-21T10:20:20;97759.47;;;19.06;56.14
80242;BME280;69556;45.004;7.532;2023-11-21T10:22:46;97762.72;;;16.28;56.72
80242;BME280;69556;45.004;7.532;2023-11-21T10:25:12;97757.22;;;14.60;62.85
80242;BME280;69556;45.004;7.532;2023-11-21T10:27:41;97760.16;;;13.39;67.32
80242;BME280;69556;45.004;7.532;2023-11-21T10:30:09;97747.13;;;12.73;70.20
80242;BME280;69556;45.004;7.532;2023-11-21T10:32:41;97740.16;;;12.23;73.08
80242;BME280;69556;45.004;7.532;2023-11-21T10:35:09;97736.28;;;11.80;75.33
80242;BME280;69556;45.004;7.532;2023-11-21T10:37:38;97749.72;;;11.59;76.70
80242;BME280;69556;45.004;7.532;2023-11-21T10:40:08;97741.38;;;11.33;78.25
80242;BME280;69556;45.004;7.532;2023-11-21T10:42:37;97741.09;;;11.21;78.65
80242;BME280;69556;45.004;7.532;2023-11-21T10:45:04;97730.06;;;11.13;79.27
80242;BME280;69556;45.004;7.532;2023-11-21T10:47:35;97722.81;;;10.99;80.19
80242;BME280;69556;45.004;7.532;2023-11-21T10:50:01;97724.84;;;10.94;81.34
80242;BME280;69556;45.004;7.532;2023-11-21T10:52:27;97719.41;;;10.97;81.57
80242;BME280;69556;45.004;7.532;2023-11-21T10:54:52;97716.91;;;10.94;81.02
80242;BME280;69556;45.004;7.532;2023-11-21T10:57:19;97717.84;;;10.93;81.83
80242;BME280;69556;45.004;7.532;2023-11-21T10:59:47;97708.88;;;10.78;82.09
80242;BME280;69556;45.004;7.532;2023-11-21T11:02:24;97712.31;;;10.80;82.17
80242;BME280;69556;45.004;7.532;2023-11-21T11:04:53;97712.16;;;10.83;81.85
80242;BME280;69556;45.004;7.532;2023-11-21T11:07:21;97696.84;;;13.18;80.22
80242;BME280;69556;45.004;7.532;2023-11-21T11:09:49;97689.44;;;15.60;69.20
80242;BME280;69556;45.004;7.532;2023-11-21T11:12:15;97686.09;;;18.43;57.26
80242;BME280;69556;45.004;7.532;2023-11-21T11:14:43;97676.25;;;17.77;57.32
80242;BME280;69556;45.004;7.532;2023-11-21T11:17:10;97676.53;;;15.02;61.83
80242;BME280;69556;45.004;7.532;2023-11-21T11:19:36;97665.34;;;14.00;66.13
80242;BME280;69556;45.004;7.532;2023-11-21T11:22:33;97678.44;;;13.31;69.65
80242;BME280;69556;45.004;7.532;2023-11-21T11:25:30;97673.59;;;12.78;71.74
80242;BME280;69556;45.004;7.532;2023-11-21T11:30:53;97665.72;;;12.14;74.65
80242;BME280;69556;45.004;7.532;2023-11-21T11:36:36;97674.09;;;11.73;77.30
80242;BME280;69556;45.004;7.532;2023-11-21T11:39:02;97659.25;;;11.71;78.37
80242;BME280;69556;45.004;7.532;2023-11-21T11:41:31;97665.69;;;11.65;79.45
80242;BME280;69556;45.004;7.532;2023-11-21T11:44:02;97660.16;;;11.70;79.25
80242;BME280;69556;45.004;7.532;2023-11-21T11:46:44;97663.22;;;11.79;79.52
80242;BME280;69556;45.004;7.532;2023-11-21T11:49:24;97663.91;;;11.83;80.00
80242;BME280;69556;45.004;7.532;2023-11-21T11:52:38;97659.41;;;11.85;79.92
80242;BME280;69556;45.004;7.532;2023-11-21T11:55:10;97655.28;;;11.95;79.40
80242;BME280;69556;45.004;7.532;2023-11-21T11:57:36;97647.00;;;11.85;79.00
80242;BME280;69556;45.004;7.532;2023-11-21T12:02:50;97635.16;;;11.93;79.48
80242;BME280;69556;45.004;7.532;2023-11-21T12:05:17;97627.41;;;11.89;79.39
80242;BME280;69556;45.004;7.532;2023-11-21T12:07:54;97632.59;;;11.91;79.45
80242;BME280;69556;45.004;7.532;2023-11-21T12:10:21;97629.28;;;11.87;79.88
80242;BME280;69556;45.004;7.532;2023-11-21T12:12:50;97635.16;;;11.93;79.39
80242;BME280;69556;45.004;7.532;2023-11-21T12:15:17;97635.25;;;11.91;79.64
80242;BME280;69556;45.004;7.532;2023-11-21T12:17:45;97636.84;;;11.78;79.60
80242;BME280;69556;45.004;7.532;2023-11-21T12:20:13;97639.31;;;11.81;78.65
80242;BME280;69556;45.004;7.532;2023-11-21T12:22:46;97631.66;;;11.92;78.93
80242;BME280;69556;45.004;7.532;2023-11-21T12:25:20;97625.88;;;12.01;78.77
80242;BME280;69556;45.004;7.532;2023-11-21T12:27:49;97627.50;;;12.19;78.30
80242;BME280;69556;45.004;7.532;2023-11-21T12:30:16;97623.66;;;12.25;78.03
80242;BME280;69556;45.004;7.532;2023-11-21T12:32:43;97630.22;;;12.33;77.58
80242;BME280;69556;45.004;7.532;2023-11-21T12:35:09;97622.63;;;12.43;77.46
80242;BME280;69556;45.004;7.532;2023-11-21T12:37:38;97625.19;;;12.45;77.72
80242;BME280;69556;45.004;7.532;2023-11-21T12:40:06;97626.72;;;12.49;77.15
80242;BME280;69556;45.004;7.532;2023-11-21T12:42:32;97622.19;;;12.51;76.44
80242;BME280;69556;45.004;7.532;2023-11-21T12:45:09;97627.91;;;12.59;77.17
80242;BME280;69556;45.004;7.532;2023-11-21T12:47:39;97622.44;;;12.62;75.64
80242;BME280;69556;45.004;7.532;2023-11-21T12:50:05;97621.31;;;12.66;76.34
80242;BME280;69556;45.004;7.532;2023-11-21T12:52:32;97633.28;;;12.73;75.69
80242;BME280;69556;45.004;7.532;2023-11-21T12:54:58;97622.50;;;12.76;75.59
80242;BME280;69556;45.004;7.532;2023-11-21T12:57:27;97624.03;;;12.80;75.96
80242;BME280;69556;45.004;7.532;2023-11-21T12:59:57;97623.22;;;12.94;76.03
80242;BME280;69556;45.004;7.532;2023-11-21T13:02:26;97625.78;;;12.95;74.81
80242;BME280;69556;45.004;7.532;2023-11-21T13:04:52;97625.00;;;12.93;74.69
80242;BME280;69556;45.004;7.532;2023-11-21T13:07:18;97622.94;;;12.98;74.72
80242;BME280;69556;45.004;7.532;2023-11-21T13:09:45;97633.47;;;13.00;74.17
80242;BME280;69556;45.004;7.532;2023-11-21T13:12:10;97626.25;;;13.17;74.80
80242;BME280;69556;45.004;7.532;2023-11-21T13:14:39;97624.38;;;13.19;74.44
80242;BME280;69556;45.004;7.532;2023-11-21T13:17:05;97618.59;;;13.27;73.86